sensor_id;sensor_type;location;lat;lon;timestamp;temperature;humidity
48686;DHT22;34485;51.536;3.816;2023-10-19T00:00:40;15.50;99.90
48686;DHT22;34485;51.536;3.816;2023-10-19T00:03:10;15.40;99.90
48686;DHT22;34485;51.536;3.816;2023-10-19T00:05:37;15.30;99.90
48686;DHT22;34485;51.536;3.816;2023-10-19T00:08:04;15.30;99.90
48686;DHT22;34485;51.536;3.816;2023-10-19T00:10:44;15.20;99.90
48686;DHT22;34485;51.536;3.816;2023-10-19T00:13:13;15.20;99.90
48686;DHT22;34485;51.536;3.816;2023-10-19T00:15:40;15.10;99.90
48686;DHT22;34485;51.536;3.816;2023-10-19T00:18:08;15.10;99.90
48686;DHT22;34485;51.536;3.816;2023-10-19T00:20:44;15.10;99.90
48686;DHT22;34485;51.536;3.816;2023-10-19T00:23:10;15.10;99.90
48686;DHT22;34485;51.536;3.816;2023-10-19T00:25:41;15.00;99.90
48686;DHT22;34485;51.536;3.816;2023-10-19T00:28:07;15.10;99.90
48686;DHT22;34485;51.536;3.816;2023-10-19T00:30:34;15.10;99.90
48686;DHT22;34485;51.536;3.816;2023-10-19T00:33:03;15.10;99.90
48686;DHT22;34485;51.536;3.816;2023-10-19T00:35:33;15.10;99.90
48686;DHT22;34485;51.536;3.816;2023-10-19T00:38:08;15.10;99.90
48686;DHT22;34485;51.536;3.816;2023-10-19T00:40:53;15.10;99.90
48686;DHT22;34485;51.536;3.816;2023-10-19T00:43:29;15.20;99.90
48686;DHT22;34485;51.536;3.816;2023-10-19T00:45:58;15.20;99.90
48686;DHT22;34485;51.536;3.816;2023-10-19T00:48:27;15.20;99.90
48686;DHT22;34485;51.536;3.816;2023-10-19T00:50:54;15.20;99.90
48686;DHT22;34485;51.536;3.816;2023-10-19T00:53:38;15.10;99.90
48686;DHT22;34485;51.536;3.816;2023-10-19T00:56:06;15.20;99.90
48686;DHT22;34485;51.536;3.816;2023-10-19T00:58:36;15.20;99.90
48686;DHT22;34485;51.536;3.816;2023-10-19T01:01:05;15.20;99.90
48686;DHT22;34485;51.536;3.816;2023-10-19T01:03:35;15.20;99.90
48686;DHT22;34485;51.536;3.816;2023-10-19T01:06:05;15.20;99.90
48686;DHT22;34485;51.536;3.816;2023-10-19T01:08:38;15.20;99.90
48686;DHT22;34485;51.536;3.816;2023-10-19T01:11:10;15.20;99.90
48686;DHT22;34485;51.536;3.816;2023-10-19T01:13:38;15.10;99.90
48686;DHT22;34485;51.536;3.816;2023-10-19T01:16:04;15.20;99.90
48686;DHT22;34485;51.536;3.816;2023-10-19T01:18:30;15.20;99.90
48686;DHT22;34485;51.536;3.816;2023-10-19T01:20:59;15.20;99.90
48686;DHT22;34485;51.536;3.816;2023-10-19T01:23:28;15.20;99.90
48686;DHT22;34485;51.536;3.816;2023-10-19T01:25:58;15.20;99.90
48686;DHT22;34485;51.536;3.816;2023-10-19T01:28:28;15.20;99.90
48686;DHT22;34485;51.536;3.816;2023-10-19T01:31:04;15.20;99.90
48686;DHT22;34485;51.536;3.816;2023-10-19T01:33:31;15.20;99.90
48686;DHT22;34485;51.536;3.816;2023-10-19T01:35:59;15.20;99.90
48686;DHT22;34485;51.536;3.816;2023-10-19T01:38:38;15.20;99.90
48686;DHT22;34485;51.536;3.816;2023-10-19T01:41:05;15.10;99.90
48686;DHT22;34485;51.536;3.816;2023-10-19T01:43:51;15.20;99.90
48686;DHT22;34485;51.536;3.816;2023-10-19T01:46:21;15.10;99.90
48686;DHT22;34485;51.536;3.816;2023-10-19T01:48:48;15.10;99.90
48686;DHT22;34485;51.536;3.816;2023-10-19T01:51:26;15.10;99.90
48686;DHT22;34485;51.536;3.816;2023-10-19T01:53:52;15.10;99.90
48686;DHT22;34485;51.536;3.816;2023-10-19T01:56:18;15.10;99.90
48686;DHT22;34485;51.536;3.816;2023-10-19T01:58:45;15.10;99.90
48686;DHT22;34485;51.536;3.816;2023-10-19T02:01:15;15.10;99.90
48686;DHT22;34485;51.536;3.816;2023-10-19T02:03:58;15.10;99.90
48686;DHT22;34485;51.536;3.816;2023-10-19T02:06:25;15.10;99.90
48686;DHT22;34485;51.536;3.816;2023-10-19T02:09:02;15.10;99.90
48686;DHT22;34485;51.536;3.816;2023-10-19T02:11:48;15.10;99.90
48686;DHT22;34485;51.536;3.816;2023-10-19T02:14:16;15.10;99.90
48686;DHT22;34485;51.536;3.816;2023-10-19T02:16:43;15.10;99.90
48686;DHT22;34485;51.536;3.816;2023-10-19T02:19:12;15.10;99.90
48686;DHT22;34485;51.536;3.816;2023-10-19T02:21:37;15.10;99.90
48686;DHT22;34485;51.536;3.816;2023-10-19T02:24:07;15.00;99.90
48686;DHT22;34485;51.536;3.816;2023-10-19T02:26:33;14.90;99.90
48686;DHT22;34485;51.536;3.816;2023-10-19T02:28:59;14.80;99.90
48686;DHT22;34485;51.536;3.816;2023-10-19T02:31:25;14.70;99.90
48686;DHT22;34485;51.536;3.816;2023-10-19T02:33:52;14.60;99.90
48686;DHT22;34485;51.536;3.816;2023-10-19T02:36:27;14.50;99.90
48686;DHT22;34485;51.536;3.816;2023-10-19T02:39:10;14.40;99.90
48686;DHT22;34485;51.536;3.816;2023-10-19T02:41:43;14.40;99.90
48686;DHT22;34485;51.536;3.816;2023-10-19T02:44:14;14.30;99.90
48686;DHT22;34485;51.536;3.816;2023-10-19T02:46:43;14.30;99.90
48686;DHT22;34485;51.536;3.816;2023-10-19T02:49:11;14.20;99.90
48686;DHT22;34485;51.536;3.816;2023-10-19T02:51:38;14.20;99.90
48686;DHT22;34485;51.536;3.816;2023-10-19T02:54:04;14.10;99.90
48686;DHT22;34485;51.536;3.816;2023-10-19T02:56:31;14.10;99.90
48686;DHT22;34485;51.536;3.816;2023-10-19T02:58:57;14.10;99.90
48686;DHT22;34485;51.536;3.816;2023-10-19T03:01:33;14.20;99.90
48686;DHT22;34485;51.536;3.816;2023-10-19T03:04:02;14.20;99.90
48686;DHT22;34485;51.536;3.816;2023-10-19T03:06:29;14.20;99.90
48686;DHT22;34485;51.536;3.816;2023-10-19T03:08:59;14.20;99.90
48686;DHT22;34485;51.536;3.816;2023-10-19T03:11:30;14.20;99.90
48686;DHT22;34485;51.536;3.816;2023-10-19T03:13:58;14.20;99.90
48686;DHT22;34485;51.536;3.816;2023-10-19T03:16:24;14.20;99.90
48686;DHT22;34485;51.536;3.816;2023-10-19T03:18:52;14.20;99.90
48686;DHT22;34485;51.536;3.816;2023-10-19T03:21:20;14.20;99.90
48686;DHT22;34485;51.536;3.816;2023-10-19T03:23:54;14.20;99.90
48686;DHT22;34485;51.536;3.816;2023-10-19T03:26:22;14.30;99.90
48686;DHT22;34485;51.536;3.816;2023-10-19T03:28:53;14.20;99.90
48686;DHT22;34485;51.536;3.816;2023-10-19T03:31:24;14.20;99.90
48686;DHT22;34485;51.536;3.816;2023-10-19T03:33:51;14.30;99.90
48686;DHT22;34485;51.536;3.816;2023-10-19T03:36:23;14.30;99.90
48686;DHT22;34485;51.536;3.816;2023-10-19T03:38:50;14.40;99.90
48686;DHT22;34485;51.536;3.816;2023-10-19T03:41:20;14.50;99.90
48686;DHT22;34485;51.536;3.816;2023-10-19T03:43:53;14.50;99.90
48686;DHT22;34485;51.536;3.816;2023-10-19T03:46:20;14.50;99.90
48686;DHT22;34485;51.536;3.816;2023-10-19T03:48:57;14.50;99.90
48686;DHT22;34485;51.536;3.816;2023-10-19T03:51:29;14.60;99.90
48686;DHT22;34485;51.536;3.816;2023-10-19T03:54:08;14.60;99.90
48686;DHT22;34485;51.536;3.816;2023-10-19T03:56:49;14.60;99.90
48686;DHT22;34485;51.536;3.816;2023-10-19T03:59:18;14.70;99.90
48686;DHT22;34485;51.536;3.816;2023-10-19T04:01:45;14.70;99.90
48686;DHT22;34485;51.536;3.816;2023-10-19T04:04:11;14.70;99.90
48686;DHT22;34485;51.536;3.816;2023-10-19T04:06:37;14.70;99.90
48686;DHT22;34485;51.536;3.816;2023-10-19T04:09:03;14.70;99.90
48686;DHT22;34485;51.536;3.816;2023-10-19T04:11:33;14.70;99.90
48686;DHT22;34485;51.536;3.816;2023-10-19T04:14:13;14.70;99.90
48686;DHT22;34485;51.536;3.816;2023-10-19T04:16:40;14.80;99.90
48686;DHT22;34485;51.536;3.816;2023-10-19T04:19:09;14.80;99.90
48686;DHT22;34485;51.536;3.816;2023-10-19T04:21:35;14.80;99.90
48686;DHT22;34485;51.536;3.816;2023-10-19T04:24:05;14.80;99.90
48686;DHT22;34485;51.536;3.816;2023-10-19T04:26:33;14.80;99.90
48686;DHT22;34485;51.536;3.816;2023-10-19T04:29:03;14.80;99.90
48686;DHT22;34485;51.536;3.816;2023-10-19T04:31:39;14.80;99.90
48686;DHT22;34485;51.536;3.816;2023-10-19T04:34:20;14.90;99.90
48686;DHT22;34485;51.536;3.816;2023-10-19T04:36:47;14.80;99.90
48686;DHT22;34485;51.536;3.816;2023-10-19T04:39:13;14.90;99.90
48686;DHT22;34485;51.536;3.816;2023-10-19T04:41:40;14.90;99.90
48686;DHT22;34485;51.536;3.816;2023-10-19T04:44:06;14.90;99.90
48686;DHT22;34485;51.536;3.816;2023-10-19T04:46:34;14.90;99.90
48686;DHT22;34485;51.536;3.816;2023-10-19T04:49:00;14.90;99.90
48686;DHT22;34485;51.536;3.816;2023-10-19T04:51:26;14.90;99.90
48686;DHT22;34485;51.536;3.816;2023-10-19T04:53:51;14.90;99.90
48686;DHT22;34485;51.536;3.816;2023-10-19T04:56:17;14.90;99.90
48686;DHT22;34485;51.536;3.816;2023-10-19T04:58:43;14.90;99.90
48686;DHT22;34485;51.536;3.816;2023-10-19T05:01:08;14.90;99.90
48686;DHT22;34485;51.536;3.816;2023-10-19T05:03:37;15.00;99.90
48686;DHT22;34485;51.536;3.816;2023-10-19T05:06:03;15.00;99.90
48686;DHT22;34485;51.536;3.816;2023-10-19T05:08:29;15.00;99.90
48686;DHT22;34485;51.536;3.816;2023-10-19T05:10:55;15.00;99.90
48686;DHT22;34485;51.536;3.816;2023-10-19T05:13:25;15.00;99.90
48686;DHT22;34485;51.536;3.816;2023-10-19T05:15:52;15.00;99.90
48686;DHT22;34485;51.536;3.816;2023-10-19T05:18:22;15.00;99.90
48686;DHT22;34485;51.536;3.816;2023-10-19T05:20:48;15.00;99.90
48686;DHT22;34485;51.536;3.816;2023-10-19T05:23:15;15.00;99.90
48686;DHT22;34485;51.536;3.816;2023-10-19T05:25:41;15.00;99.90
48686;DHT22;34485;51.536;3.816;2023-10-19T05:28:06;15.00;99.90
48686;DHT22;34485;51.536;3.816;2023-10-19T05:30:33;15.00;99.90
48686;DHT22;34485;51.536;3.816;2023-10-19T05:32:59;15.10;99.90
48686;DHT22;34485;51.536;3.816;2023-10-19T05:35:27;15.10;99.90
48686;DHT22;34485;51.536;3.816;2023-10-19T05:37:53;15.00;99.90
48686;DHT22;34485;51.536;3.816;2023-10-19T05:40:23;15.10;99.90
48686;DHT22;34485;51.536;3.816;2023-10-19T05:42:49;15.00;99.90
48686;DHT22;34485;51.536;3.816;2023-10-19T05:45:15;15.00;99.90
48686;DHT22;34485;51.536;3.816;2023-10-19T05:47:43;15.00;99.90
48686;DHT22;34485;51.536;3.816;2023-10-19T05:50:10;14.90;99.90
48686;DHT22;34485;51.536;3.816;2023-10-19T05:52:40;14.90;99.90
48686;DHT22;34485;51.536;3.816;2023-10-19T05:55:06;14.90;99.90
48686;DHT22;34485;51.536;3.816;2023-10-19T05:57:32;14.90;99.90
48686;DHT22;34485;51.536;3.816;2023-10-19T05:59:58;14.90;99.90
48686;DHT22;34485;51.536;3.816;2023-10-19T06:02:23;14.90;99.90
48686;DHT22;34485;51.536;3.816;2023-10-19T06:04:49;14.90;99.90
48686;DHT22;34485;51.536;3.816;2023-10-19T06:07:15;14.90;99.90
48686;DHT22;34485;51.536;3.816;2023-10-19T06:09:40;14.90;99.90
48686;DHT22;34485;51.536;3.816;2023-10-19T06:12:06;14.90;99.90
48686;DHT22;34485;51.536;3.816;2023-10-19T06:14:34;14.90;99.90
48686;DHT22;34485;51.536;3.816;2023-10-19T06:17:00;14.90;99.90
48686;DHT22;34485;51.536;3.816;2023-10-19T06:19:27;15.00;99.90
48686;DHT22;34485;51.536;3.816;2023-10-19T06:21:52;15.00;99.90
48686;DHT22;34485;51.536;3.816;2023-10-19T06:24:18;15.00;99.90
48686;DHT22;34485;51.536;3.816;2023-10-19T06:26:44;15.00;99.90
48686;DHT22;34485;51.536;3.816;2023-10-19T06:29:10;15.00;99.90
48686;DHT22;34485;51.536;3.816;2023-10-19T06:31:36;15.00;99.90
48686;DHT22;34485;51.536;3.816;2023-10-19T06:34:02;15.00;99.90
48686;DHT22;34485;51.536;3.816;2023-10-19T06:36:28;15.00;99.90
48686;DHT22;34485;51.536;3.816;2023-10-19T06:38:57;15.10;99.90
48686;DHT22;34485;51.536;3.816;2023-10-19T06:41:23;15.10;99.90
48686;DHT22;34485;51.536;3.816;2023-10-19T06:43:49;15.10;99.90
48686;DHT22;34485;51.536;3.816;2023-10-19T06:46:15;15.10;99.90
48686;DHT22;34485;51.536;3.816;2023-10-19T06:48:41;15.10;99.90
48686;DHT22;34485;51.536;3.816;2023-10-19T06:51:08;15.10;99.90
48686;DHT22;34485;51.536;3.816;2023-10-19T06:53:34;15.10;99.90
48686;DHT22;34485;51.536;3.816;2023-10-19T06:56:00;15.10;99.90
48686;DHT22;34485;51.536;3.816;2023-10-19T06:58:26;15.20;99.90
48686;DHT22;34485;51.536;3.816;2023-10-19T07:00:52;15.20;99.90
48686;DHT22;34485;51.536;3.816;2023-10-19T07:03:33;15.20;99.90
48686;DHT22;34485;51.536;3.816;2023-10-19T07:05:58;15.20;99.90
48686;DHT22;34485;51.536;3.816;2023-10-19T07:08:25;15.20;99.90
48686;DHT22;34485;51.536;3.816;2023-10-19T07:10:52;15.20;99.90
48686;DHT22;34485;51.536;3.816;2023-10-19T07:13:19;15.30;99.90
48686;DHT22;34485;51.536;3.816;2023-10-19T07:15:48;15.30;99.90
48686;DHT22;34485;51.536;3.816;2023-10-19T07:18:17;15.40;99.90
48686;DHT22;34485;51.536;3.816;2023-10-19T07:20:43;15.40;99.90
48686;DHT22;34485;51.536;3.816;2023-10-19T07:23:13;15.40;99.90
48686;DHT22;34485;51.536;3.816;2023-10-19T07:25:48;15.40;99.90
48686;DHT22;34485;51.536;3.816;2023-10-19T07:28:18;15.50;99.90
48686;DHT22;34485;51.536;3.816;2023-10-19T07:30:45;15.60;99.90
48686;DHT22;34485;51.536;3.816;2023-10-19T07:35:46;16.60;99.90
48686;DHT22;34485;51.536;3.816;2023-10-19T07:38:16;16.80;99.90
48686;DHT22;34485;51.536;3.816;2023-10-19T07:40:47;17.30;99.90
48686;DHT22;34485;51.536;3.816;2023-10-19T07:43:12;17.60;99.90
48686;DHT22;34485;51.536;3.816;2023-10-19T07:45:38;17.40;99.90
48686;DHT22;34485;51.536;3.816;2023-10-19T07:48:05;17.20;99.90
48686;DHT22;34485;51.536;3.816;2023-10-19T07:50:38;17.60;99.90
48686;DHT22;34485;51.536;3.816;2023-10-19T07:53:05;17.90;99.90
48686;DHT22;34485;51.536;3.816;2023-10-19T07:55:31;17.90;99.90
48686;DHT22;34485;51.536;3.816;2023-10-19T07:57:58;17.50;99.90
48686;DHT22;34485;51.536;3.816;2023-10-19T08:00:29;17.30;99.90
48686;DHT22;34485;51.536;3.816;2023-10-19T08:02:59;16.90;99.90
48686;DHT22;34485;51.536;3.816;2023-10-19T08:05:26;16.80;99.90
48686;DHT22;34485;51.536;3.816;2023-10-19T08:07:51;16.90;99.90
48686;DHT22;34485;51.536;3.816;2023-10-19T08:10:19;17.00;99.90
48686;DHT22;34485;51.536;3.816;2023-10-19T08:12:45;17.00;99.90
48686;DHT22;34485;51.536;3.816;2023-10-19T08:15:13;16.90;99.90
48686;DHT22;34485;51.536;3.816;2023-10-19T08:17:42;16.90;99.90
48686;DHT22;34485;51.536;3.816;2023-10-19T08:20:09;17.10;99.90
48686;DHT22;34485;51.536;3.816;2023-10-19T08:22:38;17.20;99.90
48686;DHT22;34485;51.536;3.816;2023-10-19T08:25:05;17.10;99.90
48686;DHT22;34485;51.536;3.816;2023-10-19T08:27:38;17.00;99.90
48686;DHT22;34485;51.536;3.816;2023-10-19T08:30:05;17.00;99.90
48686;DHT22;34485;51.536;3.816;2023-10-19T08:32:34;17.00;99.90
48686;DHT22;34485;51.536;3.816;2023-10-19T08:35:02;16.90;99.90
48686;DHT22;34485;51.536;3.816;2023-10-19T08:37:27;16.80;99.90
48686;DHT22;34485;51.536;3.816;2023-10-19T08:39:54;16.70;99.90
48686;DHT22;34485;51.536;3.816;2023-10-19T08:42:19;16.70;99.90
48686;DHT22;34485;51.536;3.816;2023-10-19T08:44:46;16.60;99.90
48686;DHT22;34485;51.536;3.816;2023-10-19T08:47:12;16.60;99.90
48686;DHT22;34485;51.536;3.816;2023-10-19T08:49:37;16.60;99.90
48686;DHT22;34485;51.536;3.816;2023-10-19T08:52:03;16.60;99.90
48686;DHT22;34485;51.536;3.816;2023-10-19T08:54:31;16.60;99.90
48686;DHT22;34485;51.536;3.816;2023-10-19T08:56:59;16.90;99.90
48686;DHT22;34485;51.536;3.816;2023-10-19T08:59:25;17.70;99.90
48686;DHT22;34485;51.536;3.816;2023-10-19T09:02:02;18.30;99.90
48686;DHT22;34485;51.536;3.816;2023-10-19T09:04:29;18.90;99.90
48686;DHT22;34485;51.536;3.816;2023-10-19T09:06:54;19.50;99.90
48686;DHT22;34485;51.536;3.816;2023-10-19T09:09:23;19.70;99.90
48686;DHT22;34485;51.536;3.816;2023-10-19T09:11:52;19.90;99.90
48686;DHT22;34485;51.536;3.816;2023-10-19T09:14:50;19.90;99.90
48686;DHT22;34485;51.536;3.816;2023-10-19T09:17:15;19.80;99.90
48686;DHT22;34485;51.536;3.816;2023-10-19T09:19:44;19.60;99.90
48686;DHT22;34485;51.536;3.816;2023-10-19T09:22:13;19.30;99.90
48686;DHT22;34485;51.536;3.816;2023-10-19T09:24:51;19.10;99.90
48686;DHT22;34485;51.536;3.816;2023-10-19T09:27:19;18.80;99.90
48686;DHT22;34485;51.536;3.816;2023-10-19T09:29:46;18.40;99.90
48686;DHT22;34485;51.536;3.816;2023-10-19T09:32:12;18.20;99.90
48686;DHT22;34485;51.536;3.816;2023-10-19T09:34:40;18.10;99.90
48686;DHT22;34485;51.536;3.816;2023-10-19T09:37:09;18.10;99.90
48686;DHT22;34485;51.536;3.816;2023-10-19T09:39:35;18.10;99.90
48686;DHT22;34485;51.536;3.816;2023-10-19T09:42:06;18.00;99.90
48686;DHT22;34485;51.536;3.816;2023-10-19T09:45:02;18.00;99.90
48686;DHT22;34485;51.536;3.816;2023-10-19T09:47:35;17.90;99.90
48686;DHT22;34485;51.536;3.816;2023-10-19T09:50:02;17.90;99.90
48686;DHT22;34485;51.536;3.816;2023-10-19T09:52:28;17.80;99.90
48686;DHT22;34485;51.536;3.816;2023-10-19T09:55:12;17.70;99.90
48686;DHT22;34485;51.536;3.816;2023-10-19T10:00:12;17.60;99.90
48686;DHT22;34485;51.536;3.816;2023-10-19T10:02:44;17.60;99.90
48686;DHT22;34485;51.536;3.816;2023-10-19T10:08:35;17.60;99.90
48686;DHT22;34485;51.536;3.816;2023-10-19T10:11:17;17.50;99.90
48686;DHT22;34485;51.536;3.816;2023-10-19T10:13:44;17.50;99.90
48686;DHT22;34485;51.536;3.816;2023-10-19T10:16:13;17.40;99.90
48686;DHT22;34485;51.536;3.816;2023-10-19T10:18:41;17.40;99.90
48686;DHT22;34485;51.536;3.816;2023-10-19T10:21:10;17.40;99.90
48686;DHT22;34485;51.536;3.816;2023-10-19T10:23:48;17.40;99.90
48686;DHT22;34485;51.536;3.816;2023-10-19T10:26:15;17.60;99.90
48686;DHT22;34485;51.536;3.816;2023-10-19T10:28:41;17.60;99.90
48686;DHT22;34485;51.536;3.816;2023-10-19T10:33:48;17.70;99.90
48686;DHT22;34485;51.536;3.816;2023-10-19T10:36:17;17.60;99.90
48686;DHT22;34485;51.536;3.816;2023-10-19T10:38:45;17.60;99.90
48686;DHT22;34485;51.536;3.816;2023-10-19T10:41:12;17.50;99.90
48686;DHT22;34485;51.536;3.816;2023-10-19T10:43:51;17.50;99.90
48686;DHT22;34485;51.536;3.816;2023-10-19T10:46:22;17.50;99.90
48686;DHT22;34485;51.536;3.816;2023-10-19T10:48:48;17.50;99.90
48686;DHT22;34485;51.536;3.816;2023-10-19T10:51:21;17.50;99.90
48686;DHT22;34485;51.536;3.816;2023-10-19T10:53:54;17.60;99.90
48686;DHT22;34485;51.536;3.816;2023-10-19T10:56:21;17.70;99.90
48686;DHT22;34485;51.536;3.816;2023-10-19T10:58:47;17.80;99.90
48686;DHT22;34485;51.536;3.816;2023-10-19T11:01:13;17.90;99.90
48686;DHT22;34485;51.536;3.816;2023-10-19T11:03:42;17.90;99.90
48686;DHT22;34485;51.536;3.816;2023-10-19T11:06:09;17.90;99.90
48686;DHT22;34485;51.536;3.816;2023-10-19T11:08:36;17.80;99.90
48686;DHT22;34485;51.536;3.816;2023-10-19T11:11:04;17.70;99.90
48686;DHT22;34485;51.536;3.816;2023-10-19T11:13:31;17.50;99.90
48686;DHT22;34485;51.536;3.816;2023-10-19T11:15:59;17.40;99.90
48686;DHT22;34485;51.536;3.816;2023-10-19T11:18:40;17.20;99.90
48686;DHT22;34485;51.536;3.816;2023-10-19T11:21:12;17.00;99.90
48686;DHT22;34485;51.536;3.816;2023-10-19T11:23:48;16.90;99.90
48686;DHT22;34485;51.536;3.816;2023-10-19T11:26:20;16.80;99.90
48686;DHT22;34485;51.536;3.816;2023-10-19T11:28:46;16.80;99.90
48686;DHT22;34485;51.536;3.816;2023-10-19T11:31:21;16.80;99.90
48686;DHT22;34485;51.536;3.816;2023-10-19T11:33:53;16.80;99.90
48686;DHT22;34485;51.536;3.816;2023-10-19T11:36:21;16.80;99.90
48686;DHT22;34485;51.536;3.816;2023-10-19T11:38:49;16.70;99.90
48686;DHT22;34485;51.536;3.816;2023-10-19T11:41:17;16.70;99.90
48686;DHT22;34485;51.536;3.816;2023-10-19T11:43:45;16.60;99.90
48686;DHT22;34485;51.536;3.816;2023-10-19T11:46:11;16.60;99.90
48686;DHT22;34485;51.536;3.816;2023-10-19T11:48:37;16.50;99.90
48686;DHT22;34485;51.536;3.816;2023-10-19T11:51:05;16.50;99.90
48686;DHT22;34485;51.536;3.816;2023-10-19T11:53:36;16.40;99.90
48686;DHT22;34485;51.536;3.816;2023-10-19T11:56:04;16.30;99.90
48686;DHT22;34485;51.536;3.816;2023-10-19T11:58:33;16.20;99.90
48686;DHT22;34485;51.536;3.816;2023-10-19T12:01:04;16.20;99.90
48686;DHT22;34485;51.536;3.816;2023-10-19T12:03:39;16.20;99.90
48686;DHT22;34485;51.536;3.816;2023-10-19T12:06:11;16.20;99.90
48686;DHT22;34485;51.536;3.816;2023-10-19T12:08:38;16.20;99.90
48686;DHT22;34485;51.536;3.816;2023-10-19T12:11:06;16.20;99.90
48686;DHT22;34485;51.536;3.816;2023-10-19T12:13:52;16.20;99.90
48686;DHT22;34485;51.536;3.816;2023-10-19T12:16:18;16.30;99.90
48686;DHT22;34485;51.536;3.816;2023-10-19T12:18:46;16.40;99.90
48686;DHT22;34485;51.536;3.816;2023-10-19T12:21:13;16.60;99.90
48686;DHT22;34485;51.536;3.816;2023-10-19T12:23:41;16.70;99.90
48686;DHT22;34485;51.536;3.816;2023-10-19T12:26:06;16.80;99.90
48686;DHT22;34485;51.536;3.816;2023-10-19T12:28:40;16.90;99.90
48686;DHT22;34485;51.536;3.816;2023-10-19T12:31:07;16.90;99.90
48686;DHT22;34485;51.536;3.816;2023-10-19T12:33:36;17.00;99.90
48686;DHT22;34485;51.536;3.816;2023-10-19T12:36:04;17.10;99.90
48686;DHT22;34485;51.536;3.816;2023-10-19T12:38:51;17.00;99.90
48686;DHT22;34485;51.536;3.816;2023-10-19T12:41:18;17.00;99.90
48686;DHT22;34485;51.536;3.816;2023-10-19T12:43:44;17.00;99.90
48686;DHT22;34485;51.536;3.816;2023-10-19T12:46:12;16.90;99.90
48686;DHT22;34485;51.536;3.816;2023-10-19T12:48:42;16.90;99.90
48686;DHT22;34485;51.536;3.816;2023-10-19T12:51:08;16.80;99.90
48686;DHT22;34485;51.536;3.816;2023-10-19T12:53:37;16.90;99.90
48686;DHT22;34485;51.536;3.816;2023-10-19T12:56:04;17.20;99.90
48686;DHT22;34485;51.536;3.816;2023-10-19T12:58:31;17.30;99.90
48686;DHT22;34485;51.536;3.816;2023-10-19T13:00:57;17.50;99.90
48686;DHT22;34485;51.536;3.816;2023-10-19T13:03:24;17.60;99.90
48686;DHT22;34485;51.536;3.816;2023-10-19T13:05:53;17.60;99.90
48686;DHT22;34485;51.536;3.816;2023-10-19T13:08:19;17.50;99.90
48686;DHT22;34485;51.536;3.816;2023-10-19T13:10:47;17.40;99.90
48686;DHT22;34485;51.536;3.816;2023-10-19T13:13:14;17.30;99.90
48686;DHT22;34485;51.536;3.816;2023-10-19T13:15:42;17.30;99.90
48686;DHT22;34485;51.536;3.816;2023-10-19T13:18:09;17.30;99.90
48686;DHT22;34485;51.536;3.816;2023-10-19T13:20:36;17.20;99.90
48686;DHT22;34485;51.536;3.816;2023-10-19T13:23:03;17.20;99.90
48686;DHT22;34485;51.536;3.816;2023-10-19T13:25:32;17.20;99.90
48686;DHT22;34485;51.536;3.816;2023-10-19T13:28:11;17.20;99.90
48686;DHT22;34485;51.536;3.816;2023-10-19T13:30:41;17.10;99.90
48686;DHT22;34485;51.536;3.816;2023-10-19T13:33:08;17.10;99.90
48686;DHT22;34485;51.536;3.816;2023-10-19T13:35:37;17.10;99.90
48686;DHT22;34485;51.536;3.816;2023-10-19T13:38:07;17.10;99.90
48686;DHT22;34485;51.536;3.816;2023-10-19T13:40:40;17.10;99.90
48686;DHT22;34485;51.536;3.816;2023-10-19T13:43:06;17.20;99.90
48686;DHT22;34485;51.536;3.816;2023-10-19T13:45:34;17.20;99.90
48686;DHT22;34485;51.536;3.816;2023-10-19T13:48:04;17.20;99.90
48686;DHT22;34485;51.536;3.816;2023-10-19T13:50:31;17.30;99.90
48686;DHT22;34485;51.536;3.816;2023-10-19T13:52:57;17.30;99.90
48686;DHT22;34485;51.536;3.816;2023-10-19T13:55:25;17.30;99.90
48686;DHT22;34485;51.536;3.816;2023-10-19T13:57:51;17.30;99.90
48686;DHT22;34485;51.536;3.816;2023-10-19T14:00:18;17.30;99.90
48686;DHT22;34485;51.536;3.816;2023-10-19T14:02:51;17.40;99.90
48686;DHT22;34485;51.536;3.816;2023-10-19T14:05:18;17.40;99.90
48686;DHT22;34485;51.536;3.816;2023-10-19T14:07:44;17.50;99.90
48686;DHT22;34485;51.536;3.816;2023-10-19T14:10:12;17.70;99.90
48686;DHT22;34485;51.536;3.816;2023-10-19T14:12:41;17.90;99.90
48686;DHT22;34485;51.536;3.816;2023-10-19T14:15:19;18.00;99.90
48686;DHT22;34485;51.536;3.816;2023-10-19T14:17:46;18.10;99.90
48686;DHT22;34485;51.536;3.816;2023-10-19T14:20:14;18.10;99.90
48686;DHT22;34485;51.536;3.816;2023-10-19T14:22:41;18.10;99.90
48686;DHT22;34485;51.536;3.816;2023-10-19T14:25:07;18.10;99.90
48686;DHT22;34485;51.536;3.816;2023-10-19T14:27:40;18.00;99.90
48686;DHT22;34485;51.536;3.816;2023-10-19T14:30:11;17.90;99.90
48686;DHT22;34485;51.536;3.816;2023-10-19T14:32:42;17.80;99.90
48686;DHT22;34485;51.536;3.816;2023-10-19T14:35:09;17.80;99.90
48686;DHT22;34485;51.536;3.816;2023-10-19T14:37:41;17.80;99.90
48686;DHT22;34485;51.536;3.816;2023-10-19T14:40:11;17.80;99.90
48686;DHT22;34485;51.536;3.816;2023-10-19T14:42:41;17.80;99.90
48686;DHT22;34485;51.536;3.816;2023-10-19T14:50:10;17.90;99.90
48686;DHT22;34485;51.536;3.816;2023-10-19T14:52:42;17.80;99.90
48686;DHT22;34485;51.536;3.816;2023-10-19T14:55:09;17.80;99.90
48686;DHT22;34485;51.536;3.816;2023-10-19T14:57:36;17.80;99.90
48686;DHT22;34485;51.536;3.816;2023-10-19T15:00:06;17.70;99.90
48686;DHT22;34485;51.536;3.816;2023-10-19T15:02:52;17.70;99.90
48686;DHT22;34485;51.536;3.816;2023-10-19T15:05:23;17.70;99.90
48686;DHT22;34485;51.536;3.816;2023-10-19T15:07:51;17.80;99.90
48686;DHT22;34485;51.536;3.816;2023-10-19T15:10:22;17.80;99.90
48686;DHT22;34485;51.536;3.816;2023-10-19T15:12:48;17.80;99.90
48686;DHT22;34485;51.536;3.816;2023-10-19T15:15:15;17.80;99.90
48686;DHT22;34485;51.536;3.816;2023-10-19T15:17:41;17.80;99.90
48686;DHT22;34485;51.536;3.816;2023-10-19T15:20:08;17.80;99.90
48686;DHT22;34485;51.536;3.816;2023-10-19T15:22:38;17.70;99.90
48686;DHT22;34485;51.536;3.816;2023-10-19T15:25:07;17.70;99.90
48686;DHT22;34485;51.536;3.816;2023-10-19T15:27:36;17.70;99.90
48686;DHT22;34485;51.536;3.816;2023-10-19T15:30:02;17.80;99.90
48686;DHT22;34485;51.536;3.816;2023-10-19T15:32:31;17.80;99.90
48686;DHT22;34485;51.536;3.816;2023-10-19T15:34:57;17.80;99.90
48686;DHT22;34485;51.536;3.816;2023-10-19T15:37:22;17.80;99.90
48686;DHT22;34485;51.536;3.816;2023-10-19T15:39:50;17.80;99.90
48686;DHT22;34485;51.536;3.816;2023-10-19T15:42:15;17.80;99.90
48686;DHT22;34485;51.536;3.816;2023-10-19T15:44:43;17.80;99.90
48686;DHT22;34485;51.536;3.816;2023-10-19T15:47:12;17.80;99.90
48686;DHT22;34485;51.536;3.816;2023-10-19T15:49:55;17.90;99.90
48686;DHT22;34485;51.536;3.816;2023-10-19T15:52:25;17.90;99.90
48686;DHT22;34485;51.536;3.816;2023-10-19T15:54:53;17.80;99.90
48686;DHT22;34485;51.536;3.816;2023-10-19T15:57:19;17.80;99.90